sensor_id;sensor_type;location;lat;lon;timestamp;P1;durP1;ratioP1;P2;durP2;ratioP2
1128;SDS011;553;51.038;7.216;2023-08-12T00:00:11;39.17;;;34.20;;
1128;SDS011;553;51.038;7.216;2023-08-12T00:02:42;47.67;;;38.30;;
1128;SDS011;553;51.038;7.216;2023-08-12T00:05:10;38.83;;;33.07;;
1128;SDS011;553;51.038;7.216;2023-08-12T00:07:37;42.27;;;34.13;;
1128;SDS011;553;51.038;7.216;2023-08-12T00:10:08;47.73;;;33.73;;
1128;SDS011;553;51.038;7.216;2023-08-12T00:12:36;40.97;;;33.67;;
1128;SDS011;553;51.038;7.216;2023-08-12T00:15:04;45.60;;;35.40;;
1128;SDS011;553;51.038;7.216;2023-08-12T00:17:33;46.90;;;35.13;;
1128;SDS011;553;51.038;7.216;2023-08-12T00:20:02;46.90;;;34.87;;
1128;SDS011;553;51.038;7.216;2023-08-12T00:22:35;41.83;;;33.87;;
1128;SDS011;553;51.038;7.216;2023-08-12T00:25:03;47.60;;;35.20;;
1128;SDS011;553;51.038;7.216;2023-08-12T00:27:30;39.57;;;32.50;;
1128;SDS011;553;51.038;7.216;2023-08-12T00:29:56;35.20;;;30.20;;
1128;SDS011;553;51.038;7.216;2023-08-12T00:32:23;39.20;;;30.83;;
1128;SDS011;553;51.038;7.216;2023-08-12T00:34:50;31.90;;;28.17;;
1128;SDS011;553;51.038;7.216;2023-08-12T00:37:17;33.30;;;28.83;;
1128;SDS011;553;51.038;7.216;2023-08-12T00:39:44;31.30;;;27.20;;
1128;SDS011;553;51.038;7.216;2023-08-12T00:42:11;35.03;;;25.60;;
1128;SDS011;553;51.038;7.216;2023-08-12T00:44:37;29.17;;;24.93;;
1128;SDS011;553;51.038;7.216;2023-08-12T00:47:04;32.30;;;24.87;;
1128;SDS011;553;51.038;7.216;2023-08-12T00:49:31;26.30;;;22.27;;
1128;SDS011;553;51.038;7.216;2023-08-12T00:51:59;35.70;;;24.77;;
1128;SDS011;553;51.038;7.216;2023-08-12T00:54:26;32.30;;;25.20;;
1128;SDS011;553;51.038;7.216;2023-08-12T00:56:54;29.43;;;24.40;;
1128;SDS011;553;51.038;7.216;2023-08-12T00:59:21;28.13;;;22.37;;
1128;SDS011;553;51.038;7.216;2023-08-12T01:01:49;26.10;;;20.60;;
1128;SDS011;553;51.038;7.216;2023-08-12T01:04:16;26.80;;;23.17;;
1128;SDS011;553;51.038;7.216;2023-08-12T01:06:43;25.60;;;22.77;;
1128;SDS011;553;51.038;7.216;2023-08-12T01:09:11;26.73;;;23.87;;
1128;SDS011;553;51.038;7.216;2023-08-12T01:11:39;32.53;;;24.13;;
1128;SDS011;553;51.038;7.216;2023-08-12T01:14:49;26.97;;;23.83;;
1128;SDS011;553;51.038;7.216;2023-08-12T01:17:08;31.67;;;25.57;;
1128;SDS011;553;51.038;7.216;2023-08-12T01:19:39;29.50;;;23.83;;
1128;SDS011;553;51.038;7.216;2023-08-12T01:22:08;25.53;;;22.73;;
1128;SDS011;553;51.038;7.216;2023-08-12T01:27:05;26.20;;;23.40;;
1128;SDS011;553;51.038;7.216;2023-08-12T01:29:34;29.63;;;22.13;;
1128;SDS011;553;51.038;7.216;2023-08-12T01:35:02;23.87;;;21.27;;
1128;SDS011;553;51.038;7.216;2023-08-12T01:37:47;24.93;;;19.77;;
1128;SDS011;553;51.038;7.216;2023-08-12T01:40:17;24.00;;;19.63;;
1128;SDS011;553;51.038;7.216;2023-08-12T01:42:45;26.90;;;20.83;;
1128;SDS011;553;51.038;7.216;2023-08-12T01:45:13;25.90;;;20.57;;
1128;SDS011;553;51.038;7.216;2023-08-12T01:47:42;24.87;;;21.10;;
1128;SDS011;553;51.038;7.216;2023-08-12T01:50:10;26.67;;;20.90;;
1128;SDS011;553;51.038;7.216;2023-08-12T01:52:36;24.80;;;19.20;;
1128;SDS011;553;51.038;7.216;2023-08-12T01:55:03;23.73;;;19.70;;
1128;SDS011;553;51.038;7.216;2023-08-12T01:57:30;19.60;;;17.50;;
1128;SDS011;553;51.038;7.216;2023-08-12T01:59:57;23.83;;;18.30;;
1128;SDS011;553;51.038;7.216;2023-08-12T02:02:23;20.33;;;17.50;;
1128;SDS011;553;51.038;7.216;2023-08-12T02:04:50;25.30;;;17.80;;
1128;SDS011;553;51.038;7.216;2023-08-12T02:07:17;21.03;;;17.07;;
1128;SDS011;553;51.038;7.216;2023-08-12T02:09:44;18.83;;;16.77;;
1128;SDS011;553;51.038;7.216;2023-08-12T02:12:11;24.60;;;17.90;;
1128;SDS011;553;51.038;7.216;2023-08-12T02:14:37;20.47;;;16.40;;
1128;SDS011;553;51.038;7.216;2023-08-12T02:17:04;22.63;;;19.47;;
1128;SDS011;553;51.038;7.216;2023-08-12T02:19:32;21.87;;;18.43;;
1128;SDS011;553;51.038;7.216;2023-08-12T02:22:00;23.87;;;21.03;;
1128;SDS011;553;51.038;7.216;2023-08-12T02:24:28;23.27;;;19.30;;
1128;SDS011;553;51.038;7.216;2023-08-12T02:26:54;24.90;;;20.50;;
1128;SDS011;553;51.038;7.216;2023-08-12T02:29:21;25.43;;;20.93;;
1128;SDS011;553;51.038;7.216;2023-08-12T02:31:48;25.87;;;21.90;;
1128;SDS011;553;51.038;7.216;2023-08-12T02:34:19;27.03;;;22.13;;
1128;SDS011;553;51.038;7.216;2023-08-12T02:36:45;27.17;;;21.97;;
1128;SDS011;553;51.038;7.216;2023-08-12T02:39:12;25.97;;;20.90;;
1128;SDS011;553;51.038;7.216;2023-08-12T02:41:40;26.57;;;21.93;;
1128;SDS011;553;51.038;7.216;2023-08-12T02:44:07;29.20;;;20.10;;
1128;SDS011;553;51.038;7.216;2023-08-12T02:46:33;22.40;;;19.20;;
1128;SDS011;553;51.038;7.216;2023-08-12T02:49:00;24.83;;;21.20;;
1128;SDS011;553;51.038;7.216;2023-08-12T02:51:27;23.17;;;19.27;;
1128;SDS011;553;51.038;7.216;2023-08-12T02:53:53;21.00;;;18.00;;
1128;SDS011;553;51.038;7.216;2023-08-12T02:56:20;17.20;;;14.87;;
1128;SDS011;553;51.038;7.216;2023-08-12T02:58:47;19.63;;;15.50;;
1128;SDS011;553;51.038;7.216;2023-08-12T03:01:14;18.50;;;15.63;;
1128;SDS011;553;51.038;7.216;2023-08-12T03:03:42;18.43;;;16.43;;
1128;SDS011;553;51.038;7.216;2023-08-12T03:06:08;19.60;;;15.73;;
1128;SDS011;553;51.038;7.216;2023-08-12T03:08:35;15.53;;;13.40;;
1128;SDS011;553;51.038;7.216;2023-08-12T03:11:04;17.93;;;14.47;;
1128;SDS011;553;51.038;7.216;2023-08-12T03:13:31;19.47;;;14.50;;
1128;SDS011;553;51.038;7.216;2023-08-12T03:15:58;14.63;;;13.13;;
1128;SDS011;553;51.038;7.216;2023-08-12T03:18:25;16.47;;;14.60;;
1128;SDS011;553;51.038;7.216;2023-08-12T03:20:52;15.10;;;13.10;;
1128;SDS011;553;51.038;7.216;2023-08-12T03:23:21;16.90;;;13.10;;
1128;SDS011;553;51.038;7.216;2023-08-12T03:25:48;15.97;;;12.40;;
1128;SDS011;553;51.038;7.216;2023-08-12T03:28:15;13.93;;;12.37;;
1128;SDS011;553;51.038;7.216;2023-08-12T03:30:49;14.00;;;10.70;;
1128;SDS011;553;51.038;7.216;2023-08-12T03:33:19;12.60;;;9.93;;
1128;SDS011;553;51.038;7.216;2023-08-12T03:35:46;12.30;;;9.47;;
1128;SDS011;553;51.038;7.216;2023-08-12T03:38:14;10.50;;;8.50;;
1128;SDS011;553;51.038;7.216;2023-08-12T03:40:43;19.20;;;9.17;;
1128;SDS011;553;51.038;7.216;2023-08-12T03:43:12;10.27;;;9.17;;
1128;SDS011;553;51.038;7.216;2023-08-12T03:45:44;12.70;;;10.13;;
1128;SDS011;553;51.038;7.216;2023-08-12T03:48:14;10.77;;;9.70;;
1128;SDS011;553;51.038;7.216;2023-08-12T03:50:41;11.30;;;8.83;;
1128;SDS011;553;51.038;7.216;2023-08-12T03:53:08;10.13;;;9.13;;
1128;SDS011;553;51.038;7.216;2023-08-12T03:55:37;9.80;;;8.53;;
1128;SDS011;553;51.038;7.216;2023-08-12T03:58:04;12.90;;;9.07;;
1128;SDS011;553;51.038;7.216;2023-08-12T04:00:31;11.30;;;8.83;;
1128;SDS011;553;51.038;7.216;2023-08-12T04:03:00;11.33;;;8.90;;
1128;SDS011;553;51.038;7.216;2023-08-12T04:05:27;9.77;;;8.70;;
1128;SDS011;553;51.038;7.216;2023-08-12T04:07:54;11.13;;;9.97;;
1128;SDS011;553;51.038;7.216;2023-08-12T04:10:20;13.50;;;11.03;;
1128;SDS011;553;51.038;7.216;2023-08-12T04:12:47;11.47;;;10.27;;
1128;SDS011;553;51.038;7.216;2023-08-12T04:15:14;13.33;;;11.93;;
1128;SDS011;553;51.038;7.216;2023-08-12T04:17:41;16.07;;;12.17;;
1128;SDS011;553;51.038;7.216;2023-08-12T04:20:08;12.33;;;11.07;;
1128;SDS011;553;51.038;7.216;2023-08-12T04:22:36;15.73;;;12.40;;
1128;SDS011;553;51.038;7.216;2023-08-12T04:25:03;14.07;;;12.67;;
1128;SDS011;553;51.038;7.216;2023-08-12T04:27:30;14.33;;;12.40;;
1128;SDS011;553;51.038;7.216;2023-08-12T04:29:58;15.77;;;11.37;;
1128;SDS011;553;51.038;7.216;2023-08-12T04:32:26;13.97;;;11.40;;
1128;SDS011;553;51.038;7.216;2023-08-12T04:34:53;12.50;;;10.90;;
1128;SDS011;553;51.038;7.216;2023-08-12T04:37:20;13.70;;;12.10;;
1128;SDS011;553;51.038;7.216;2023-08-12T04:39:48;13.83;;;10.70;;
1128;SDS011;553;51.038;7.216;2023-08-12T04:42:15;13.70;;;12.10;;
1128;SDS011;553;51.038;7.216;2023-08-12T04:44:43;15.77;;;11.83;;
1128;SDS011;553;51.038;7.216;2023-08-12T04:47:10;12.90;;;11.57;;
1128;SDS011;553;51.038;7.216;2023-08-12T04:49:37;13.73;;;11.30;;
1128;SDS011;553;51.038;7.216;2023-08-12T04:52:04;11.17;;;9.67;;
1128;SDS011;553;51.038;7.216;2023-08-12T04:54:31;13.03;;;10.73;;
1128;SDS011;553;51.038;7.216;2023-08-12T04:56:59;14.77;;;11.90;;
1128;SDS011;553;51.038;7.216;2023-08-12T04:59:25;13.63;;;11.27;;
1128;SDS011;553;51.038;7.216;2023-08-12T05:01:53;9.73;;;7.97;;
1128;SDS011;553;51.038;7.216;2023-08-12T05:04:40;25.53;;;9.13;;
1128;SDS011;553;51.038;7.216;2023-08-12T05:07:07;8.40;;;7.30;;
1128;SDS011;553;51.038;7.216;2023-08-12T05:09:34;8.87;;;7.87;;
1128;SDS011;553;51.038;7.216;2023-08-12T05:12:01;9.97;;;7.97;;
1128;SDS011;553;51.038;7.216;2023-08-12T05:14:28;9.90;;;9.00;;
1128;SDS011;553;51.038;7.216;2023-08-12T05:16:55;9.63;;;8.73;;
1128;SDS011;553;51.038;7.216;2023-08-12T05:19:21;9.37;;;8.47;;
1128;SDS011;553;51.038;7.216;2023-08-12T05:21:48;9.90;;;8.00;;
1128;SDS011;553;51.038;7.216;2023-08-12T05:24:15;11.13;;;7.77;;
1128;SDS011;553;51.038;7.216;2023-08-12T05:26:42;10.10;;;7.43;;
1128;SDS011;553;51.038;7.216;2023-08-12T05:29:09;8.70;;;7.80;;
1128;SDS011;553;51.038;7.216;2023-08-12T05:31:35;9.17;;;7.00;;
1128;SDS011;553;51.038;7.216;2023-08-12T05:34:03;7.60;;;6.60;;
1128;SDS011;553;51.038;7.216;2023-08-12T05:36:30;9.17;;;8.07;;
1128;SDS011;553;51.038;7.216;2023-08-12T05:38:57;11.27;;;9.03;;
1128;SDS011;553;51.038;7.216;2023-08-12T05:41:24;8.50;;;7.67;;
1128;SDS011;553;51.038;7.216;2023-08-12T05:43:51;9.73;;;7.83;;
1128;SDS011;553;51.038;7.216;2023-08-12T05:46:18;7.20;;;6.50;;
1128;SDS011;553;51.038;7.216;2023-08-12T05:48:45;9.67;;;7.30;;
1128;SDS011;553;51.038;7.216;2023-08-12T05:51:11;9.07;;;7.27;;
1128;SDS011;553;51.038;7.216;2023-08-12T05:53:38;8.33;;;7.10;;
1128;SDS011;553;51.038;7.216;2023-08-12T05:56:05;7.80;;;6.63;;
1128;SDS011;553;51.038;7.216;2023-08-12T05:58:31;11.10;;;8.17;;
1128;SDS011;553;51.038;7.216;2023-08-12T06:00:58;8.10;;;7.30;;
1128;SDS011;553;51.038;7.216;2023-08-12T06:03:25;11.33;;;7.57;;
1128;SDS011;553;51.038;7.216;2023-08-12T06:05:52;7.63;;;6.93;;
1128;SDS011;553;51.038;7.216;2023-08-12T06:08:19;9.27;;;7.70;;
1128;SDS011;553;51.038;7.216;2023-08-12T06:10:46;8.63;;;7.77;;
1128;SDS011;553;51.038;7.216;2023-08-12T06:13:12;11.60;;;9.10;;
1128;SDS011;553;51.038;7.216;2023-08-12T06:15:39;9.40;;;8.40;;
1128;SDS011;553;51.038;7.216;2023-08-12T06:18:06;11.13;;;8.90;;
1128;SDS011;553;51.038;7.216;2023-08-12T06:20:33;13.80;;;9.67;;
1128;SDS011;553;51.038;7.216;2023-08-12T06:23:00;12.43;;;11.20;;
1128;SDS011;553;51.038;7.216;2023-08-12T06:25:27;13.10;;;11.70;;
1128;SDS011;553;51.038;7.216;2023-08-12T06:27:54;12.83;;;11.47;;
1128;SDS011;553;51.038;7.216;2023-08-12T06:30:20;12.47;;;11.10;;
1128;SDS011;553;51.038;7.216;2023-08-12T06:32:47;15.17;;;11.60;;
1128;SDS011;553;51.038;7.216;2023-08-12T06:35:14;11.17;;;10.10;;
1128;SDS011;553;51.038;7.216;2023-08-12T06:37:40;11.40;;;8.93;;
1128;SDS011;553;51.038;7.216;2023-08-12T06:40:08;12.93;;;9.90;;
1128;SDS011;553;51.038;7.216;2023-08-12T06:42:34;9.17;;;8.30;;
1128;SDS011;553;51.038;7.216;2023-08-12T06:45:01;9.90;;;8.63;;
1128;SDS011;553;51.038;7.216;2023-08-12T06:47:30;9.07;;;8.10;;
1128;SDS011;553;51.038;7.216;2023-08-12T06:49:57;8.30;;;7.50;;
1128;SDS011;553;51.038;7.216;2023-08-12T06:52:24;8.20;;;7.40;;
1128;SDS011;553;51.038;7.216;2023-08-12T06:54:50;9.30;;;8.00;;
1128;SDS011;553;51.038;7.216;2023-08-12T06:57:17;8.67;;;7.80;;
1128;SDS011;553;51.038;7.216;2023-08-12T06:59:44;10.93;;;8.30;;
1128;SDS011;553;51.038;7.216;2023-08-12T07:02:11;8.30;;;7.50;;
1128;SDS011;553;51.038;7.216;2023-08-12T07:04:38;9.20;;;7.97;;
1128;SDS011;553;51.038;7.216;2023-08-12T07:07:05;8.03;;;7.20;;
1128;SDS011;553;51.038;7.216;2023-08-12T07:09:32;8.30;;;7.20;;
1128;SDS011;553;51.038;7.216;2023-08-12T07:11:58;7.57;;;6.83;;
1128;SDS011;553;51.038;7.216;2023-08-12T07:14:27;9.37;;;8.47;;
1128;SDS011;553;51.038;7.216;2023-08-12T07:16:54;8.03;;;7.13;;
1128;SDS011;553;51.038;7.216;2023-08-12T07:19:22;9.07;;;8.00;;
1128;SDS011;553;51.038;7.216;2023-08-12T07:21:49;9.13;;;8.23;;
1128;SDS011;553;51.038;7.216;2023-08-12T07:24:16;8.90;;;8.10;;
1128;SDS011;553;51.038;7.216;2023-08-12T07:26:43;9.70;;;8.13;;
1128;SDS011;553;51.038;7.216;2023-08-12T07:29:09;9.83;;;8.83;;
1128;SDS011;553;51.038;7.216;2023-08-12T07:31:36;8.47;;;7.67;;
1128;SDS011;553;51.038;7.216;2023-08-12T07:34:03;8.30;;;7.37;;
1128;SDS011;553;51.038;7.216;2023-08-12T07:36:30;9.43;;;7.40;;
1128;SDS011;553;51.038;7.216;2023-08-12T07:38:59;8.83;;;7.10;;
1128;SDS011;553;51.038;7.216;2023-08-12T07:41:25;8.70;;;7.80;;
1128;SDS011;553;51.038;7.216;2023-08-12T07:43:54;10.10;;;8.23;;
1128;SDS011;553;51.038;7.216;2023-08-12T07:46:20;8.53;;;7.83;;
1128;SDS011;553;51.038;7.216;2023-08-12T07:48:47;8.90;;;8.10;;
1128;SDS011;553;51.038;7.216;2023-08-12T07:51:14;8.73;;;7.40;;
1128;SDS011;553;51.038;7.216;2023-08-12T07:53:41;8.27;;;7.27;;
1128;SDS011;553;51.038;7.216;2023-08-12T07:56:07;8.30;;;7.50;;
1128;SDS011;553;51.038;7.216;2023-08-12T07:58:35;7.60;;;6.90;;
1128;SDS011;553;51.038;7.216;2023-08-12T08:01:01;7.07;;;5.93;;
1128;SDS011;553;51.038;7.216;2023-08-12T08:03:28;6.10;;;5.43;;
1128;SDS011;553;51.038;7.216;2023-08-12T08:05:55;8.23;;;6.33;;
1128;SDS011;553;51.038;7.216;2023-08-12T08:08:21;5.70;;;5.00;;
1128;SDS011;553;51.038;7.216;2023-08-12T08:10:48;5.80;;;5.20;;
1128;SDS011;553;51.038;7.216;2023-08-12T08:13:15;4.53;;;4.10;;
1128;SDS011;553;51.038;7.216;2023-08-12T08:15:42;4.60;;;3.70;;
1128;SDS011;553;51.038;7.216;2023-08-12T08:18:08;6.43;;;3.90;;
1128;SDS011;553;51.038;7.216;2023-08-12T08:20:35;4.67;;;3.70;;
1128;SDS011;553;51.038;7.216;2023-08-12T08:23:02;4.07;;;3.60;;
1128;SDS011;553;51.038;7.216;2023-08-12T08:25:29;3.90;;;3.40;;
1128;SDS011;553;51.038;7.216;2023-08-12T08:27:56;3.90;;;3.60;;
1128;SDS011;553;51.038;7.216;2023-08-12T08:30:23;5.00;;;3.60;;
1128;SDS011;553;51.038;7.216;2023-08-12T08:32:51;5.17;;;3.80;;
1128;SDS011;553;51.038;7.216;2023-08-12T08:35:18;4.83;;;3.60;;
1128;SDS011;553;51.038;7.216;2023-08-12T08:37:45;4.20;;;3.77;;
1128;SDS011;553;51.038;7.216;2023-08-12T08:40:11;5.23;;;3.10;;
1128;SDS011;553;51.038;7.216;2023-08-12T08:42:39;3.60;;;2.93;;
1128;SDS011;553;51.038;7.216;2023-08-12T08:45:08;3.90;;;2.90;;
1128;SDS011;553;51.038;7.216;2023-08-12T08:47:39;4.63;;;2.70;;
1128;SDS011;553;51.038;7.216;2023-08-12T08:50:08;4.57;;;3.30;;
1128;SDS011;553;51.038;7.216;2023-08-12T08:52:37;4.37;;;3.37;;
1128;SDS011;553;51.038;7.216;2023-08-12T08:55:04;3.37;;;2.70;;
1128;SDS011;553;51.038;7.216;2023-08-12T08:57:33;3.07;;;2.70;;
1128;SDS011;553;51.038;7.216;2023-08-12T09:00:13;3.17;;;2.83;;
1128;SDS011;553;51.038;7.216;2023-08-12T09:02:44;2.87;;;2.60;;
1128;SDS011;553;51.038;7.216;2023-08-12T09:05:12;3.27;;;2.70;;
1128;SDS011;553;51.038;7.216;2023-08-12T09:07:41;5.20;;;2.60;;
1128;SDS011;553;51.038;7.216;2023-08-12T09:10:10;2.97;;;2.27;;
1128;SDS011;553;51.038;7.216;2023-08-12T09:12:41;3.10;;;2.77;;
1128;SDS011;553;51.038;7.216;2023-08-12T09:15:08;3.30;;;2.67;;
1128;SDS011;553;51.038;7.216;2023-08-12T09:17:35;5.13;;;2.77;;
1128;SDS011;553;51.038;7.216;2023-08-12T09:20:02;4.20;;;2.70;;
1128;SDS011;553;51.038;7.216;2023-08-12T09:22:34;3.87;;;2.50;;
1128;SDS011;553;51.038;7.216;2023-08-12T09:25:01;4.07;;;2.63;;
1128;SDS011;553;51.038;7.216;2023-08-12T09:27:31;2.80;;;2.03;;
1128;SDS011;553;51.038;7.216;2023-08-12T09:29:58;3.03;;;2.73;;
1128;SDS011;553;51.038;7.216;2023-08-12T09:32:28;6.03;;;2.37;;
1128;SDS011;553;51.038;7.216;2023-08-12T09:34:55;4.50;;;3.10;;
1128;SDS011;553;51.038;7.216;2023-08-12T09:37:23;4.47;;;2.47;;
1128;SDS011;553;51.038;7.216;2023-08-12T09:39:51;3.47;;;2.93;;
1128;SDS011;553;51.038;7.216;2023-08-12T09:42:18;3.30;;;2.20;;
1128;SDS011;553;51.038;7.216;2023-08-12T09:44:45;3.80;;;2.33;;
1128;SDS011;553;51.038;7.216;2023-08-12T09:47:12;4.33;;;2.70;;
1128;SDS011;553;51.038;7.216;2023-08-12T09:49:39;2.93;;;2.60;;
1128;SDS011;553;51.038;7.216;2023-08-12T09:52:07;2.73;;;2.43;;
1128;SDS011;553;51.038;7.216;2023-08-12T09:54:34;3.00;;;2.47;;
1128;SDS011;553;51.038;7.216;2023-08-12T09:57:02;1.90;;;1.80;;
1128;SDS011;553;51.038;7.216;2023-08-12T09:59:35;3.80;;;2.40;;
1128;SDS011;553;51.038;7.216;2023-08-12T10:02:02;2.80;;;2.60;;
1128;SDS011;553;51.038;7.216;2023-08-12T10:04:38;3.00;;;2.33;;
1128;SDS011;553;51.038;7.216;2023-08-12T10:07:07;4.03;;;2.70;;
1128;SDS011;553;51.038;7.216;2023-08-12T10:09:36;4.03;;;2.57;;
1128;SDS011;553;51.038;7.216;2023-08-12T10:12:04;2.97;;;2.27;;
1128;SDS011;553;51.038;7.216;2023-08-12T10:14:33;2.80;;;2.50;;
1128;SDS011;553;51.038;7.216;2023-08-12T10:17:00;4.53;;;2.93;;
1128;SDS011;553;51.038;7.216;2023-08-12T10:19:31;3.80;;;2.47;;
1128;SDS011;553;51.038;7.216;2023-08-12T10:21:58;3.70;;;2.87;;
1128;SDS011;553;51.038;7.216;2023-08-12T10:24:27;2.87;;;2.30;;
1128;SDS011;553;51.038;7.216;2023-08-12T10:26:54;4.97;;;2.40;;
1128;SDS011;553;51.038;7.216;2023-08-12T10:29:23;3.00;;;2.30;;
1128;SDS011;553;51.038;7.216;2023-08-12T10:31:51;4.63;;;2.60;;
1128;SDS011;553;51.038;7.216;2023-08-12T10:34:21;3.70;;;2.33;;
1128;SDS011;553;51.038;7.216;2023-08-12T10:36:48;3.43;;;2.50;;
1128;SDS011;553;51.038;7.216;2023-08-12T10:39:28;3.30;;;2.53;;
1128;SDS011;553;51.038;7.216;2023-08-12T10:41:58;2.87;;;2.67;;
1128;SDS011;553;51.038;7.216;2023-08-12T10:47:09;3.43;;;2.83;;
1128;SDS011;553;51.038;7.216;2023-08-12T10:49:42;4.00;;;2.63;;
1128;SDS011;553;51.038;7.216;2023-08-12T10:52:30;2.80;;;2.20;;
1128;SDS011;553;51.038;7.216;2023-08-12T10:57:51;3.43;;;2.73;;
1128;SDS011;553;51.038;7.216;2023-08-12T11:00:26;5.63;;;2.80;;
1128;SDS011;553;51.038;7.216;2023-08-12T11:02:54;3.53;;;2.57;;
1128;SDS011;553;51.038;7.216;2023-08-12T11:05:23;4.77;;;2.77;;
1128;SDS011;553;51.038;7.216;2023-08-12T11:07:57;2.83;;;2.63;;
1128;SDS011;553;51.038;7.216;2023-08-12T11:10:29;3.27;;;2.17;;
1128;SDS011;553;51.038;7.216;2023-08-12T11:13:00;3.93;;;2.87;;
1128;SDS011;553;51.038;7.216;2023-08-12T11:18:06;5.00;;;2.53;;
1128;SDS011;553;51.038;7.216;2023-08-12T11:20:35;3.10;;;2.47;;
1128;SDS011;553;51.038;7.216;2023-08-12T11:23:03;4.00;;;2.80;;
1128;SDS011;553;51.038;7.216;2023-08-12T11:25:31;3.10;;;2.63;;
1128;SDS011;553;51.038;7.216;2023-08-12T11:27:58;4.30;;;2.80;;
1128;SDS011;553;51.038;7.216;2023-08-12T11:30:26;3.23;;;2.93;;
1128;SDS011;553;51.038;7.216;2023-08-12T11:32:57;3.63;;;2.40;;
1128;SDS011;553;51.038;7.216;2023-08-12T11:35:25;4.20;;;2.90;;
1128;SDS011;553;51.038;7.216;2023-08-12T11:37:52;4.20;;;3.00;;
1128;SDS011;553;51.038;7.216;2023-08-12T11:40:22;3.40;;;2.90;;
1128;SDS011;553;51.038;7.216;2023-08-12T11:42:50;4.00;;;2.90;;
1128;SDS011;553;51.038;7.216;2023-08-12T11:45:21;4.30;;;3.00;;
1128;SDS011;553;51.038;7.216;2023-08-12T11:47:49;3.30;;;2.80;;
1128;SDS011;553;51.038;7.216;2023-08-12T11:50:24;3.50;;;3.20;;
1128;SDS011;553;51.038;7.216;2023-08-12T11:52:53;3.93;;;2.50;;
1128;SDS011;553;51.038;7.216;2023-08-12T11:55:21;4.00;;;2.70;;
1128;SDS011;553;51.038;7.216;2023-08-12T11:57:49;4.17;;;2.27;;
1128;SDS011;553;51.038;7.216;2023-08-12T12:00:17;3.17;;;2.63;;
1128;SDS011;553;51.038;7.216;2023-08-12T12:02:52;4.83;;;3.07;;
1128;SDS011;553;51.038;7.216;2023-08-12T12:05:27;3.90;;;3.20;;
1128;SDS011;553;51.038;7.216;2023-08-12T12:08:01;4.97;;;2.77;;
1128;SDS011;553;51.038;7.216;2023-08-12T12:10:29;5.13;;;3.30;;
1128;SDS011;553;51.038;7.216;2023-08-12T12:13:01;3.43;;;2.87;;
1128;SDS011;553;51.038;7.216;2023-08-12T12:15:28;4.33;;;2.87;;
1128;SDS011;553;51.038;7.216;2023-08-12T12:17:55;5.10;;;2.60;;
1128;SDS011;553;51.038;7.216;2023-08-12T12:20:22;3.23;;;2.70;;
1128;SDS011;553;51.038;7.216;2023-08-12T12:22:49;5.37;;;2.70;;
1128;SDS011;553;51.038;7.216;2023-08-12T12:25:16;3.37;;;2.60;;
1128;SDS011;553;51.038;7.216;2023-08-12T12:27:45;3.00;;;2.30;;
1128;SDS011;553;51.038;7.216;2023-08-12T12:30:13;3.97;;;2.80;;
1128;SDS011;553;51.038;7.216;2023-08-12T12:32:41;4.70;;;3.03;;
1128;SDS011;553;51.038;7.216;2023-08-12T12:35:08;6.43;;;2.73;;
1128;SDS011;553;51.038;7.216;2023-08-12T12:37:35;3.40;;;2.57;;
1128;SDS011;553;51.038;7.216;2023-08-12T12:40:03;4.63;;;2.90;;
1128;SDS011;553;51.038;7.216;2023-08-12T12:42:31;4.27;;;3.10;;
1128;SDS011;553;51.038;7.216;2023-08-12T12:44:58;5.00;;;3.23;;
1128;SDS011;553;51.038;7.216;2023-08-12T12:47:25;4.00;;;3.60;;
1128;SDS011;553;51.038;7.216;2023-08-12T12:49:51;5.33;;;3.60;;
1128;SDS011;553;51.038;7.216;2023-08-12T12:52:18;4.13;;;2.67;;
1128;SDS011;553;51.038;7.216;2023-08-12T12:54:45;3.30;;;3.00;;
1128;SDS011;553;51.038;7.216;2023-08-12T12:57:12;3.60;;;3.27;;
1128;SDS011;553;51.038;7.216;2023-08-12T12:59:38;3.40;;;2.80;;
1128;SDS011;553;51.038;7.216;2023-08-12T13:02:05;5.03;;;3.10;;
1128;SDS011;553;51.038;7.216;2023-08-12T13:04:32;3.53;;;3.23;;
1128;SDS011;553;51.038;7.216;2023-08-12T13:06:58;4.17;;;2.40;;
1128;SDS011;553;51.038;7.216;2023-08-12T13:09:25;2.40;;;2.20;;
1128;SDS011;553;51.038;7.216;2023-08-12T13:11:52;2.57;;;2.20;;
1128;SDS011;553;51.038;7.216;2023-08-12T13:14:19;3.03;;;2.40;;
1128;SDS011;553;51.038;7.216;2023-08-12T13:16:47;2.53;;;2.33;;
1128;SDS011;553;51.038;7.216;2023-08-12T13:19:14;2.80;;;2.60;;
1128;SDS011;553;51.038;7.216;2023-08-12T13:21:41;2.50;;;2.20;;
1128;SDS011;553;51.038;7.216;2023-08-12T13:24:08;2.10;;;1.90;;
1128;SDS011;553;51.038;7.216;2023-08-12T13:26:34;2.50;;;2.30;;
1128;SDS011;553;51.038;7.216;2023-08-12T13:29:01;2.93;;;2.23;;
1128;SDS011;553;51.038;7.216;2023-08-12T13:31:28;2.30;;;2.03;;
1128;SDS011;553;51.038;7.216;2023-08-12T13:33:55;2.63;;;2.43;;
1128;SDS011;553;51.038;7.216;2023-08-12T13:36:21;6.00;;;2.57;;
1128;SDS011;553;51.038;7.216;2023-08-12T13:38:48;3.50;;;2.47;;
1128;SDS011;553;51.038;7.216;2023-08-12T13:41:15;4.20;;;2.90;;
1128;SDS011;553;51.038;7.216;2023-08-12T13:43:42;3.90;;;3.20;;
1128;SDS011;553;51.038;7.216;2023-08-12T13:46:09;3.87;;;2.97;;
1128;SDS011;553;51.038;7.216;2023-08-12T13:48:36;4.47;;;2.80;;
1128;SDS011;553;51.038;7.216;2023-08-12T13:51:02;5.73;;;2.93;;
1128;SDS011;553;51.038;7.216;2023-08-12T13:53:30;2.47;;;1.43;;
1128;SDS011;553;51.038;7.216;2023-08-12T13:55:56;2.50;;;1.57;;
1128;SDS011;553;51.038;7.216;2023-08-12T13:58:23;1.63;;;1.23;;
1128;SDS011;553;51.038;7.216;2023-08-12T14:00:50;2.10;;;1.40;;
1128;SDS011;553;51.038;7.216;2023-08-12T14:03:17;3.50;;;1.77;;
1128;SDS011;553;51.038;7.216;2023-08-12T14:05:43;2.47;;;1.70;;
1128;SDS011;553;51.038;7.216;2023-08-12T14:08:11;3.00;;;2.70;;
1128;SDS011;553;51.038;7.216;2023-08-12T14:10:37;2.57;;;2.37;;
1128;SDS011;553;51.038;7.216;2023-08-12T14:13:04;3.60;;;3.00;;
1128;SDS011;553;51.038;7.216;2023-08-12T14:15:32;2.37;;;2.17;;
1128;SDS011;553;51.038;7.216;2023-08-12T14:17:59;3.90;;;2.40;;
1128;SDS011;553;51.038;7.216;2023-08-12T14:20:26;2.53;;;2.33;;
1128;SDS011;553;51.038;7.216;2023-08-12T14:22:53;2.47;;;2.27;;
1128;SDS011;553;51.038;7.216;2023-08-12T14:25:20;3.80;;;2.57;;
1128;SDS011;553;51.038;7.216;2023-08-12T14:27:47;3.23;;;2.50;;
1128;SDS011;553;51.038;7.216;2023-08-12T14:30:13;2.13;;;2.00;;
1128;SDS011;553;51.038;7.216;2023-08-12T14:32:40;2.53;;;2.17;;
1128;SDS011;553;51.038;7.216;2023-08-12T14:35:07;1.40;;;1.23;;
1128;SDS011;553;51.038;7.216;2023-08-12T14:37:34;1.63;;;1.53;;
1128;SDS011;553;51.038;7.216;2023-08-12T14:40:01;2.87;;;2.13;;
1128;SDS011;553;51.038;7.216;2023-08-12T14:42:28;1.80;;;1.70;;
1128;SDS011;553;51.038;7.216;2023-08-12T14:44:55;2.00;;;1.80;;
1128;SDS011;553;51.038;7.216;2023-08-12T14:47:21;2.37;;;2.10;;
1128;SDS011;553;51.038;7.216;2023-08-12T14:49:48;2.10;;;1.80;;
1128;SDS011;553;51.038;7.216;2023-08-12T14:52:17;2.70;;;1.63;;
1128;SDS011;553;51.038;7.216;2023-08-12T14:54:45;2.10;;;1.90;;
1128;SDS011;553;51.038;7.216;2023-08-12T14:57:13;2.43;;;2.00;;
1128;SDS011;553;51.038;7.216;2023-08-12T14:59:40;1.70;;;1.60;;
1128;SDS011;553;51.038;7.216;2023-08-12T15:02:07;1.80;;;1.63;;
1128;SDS011;553;51.038;7.216;2023-08-12T15:04:34;1.47;;;1.27;;
1128;SDS011;553;51.038;7.216;2023-08-12T15:07:01;2.90;;;1.07;;
1128;SDS011;553;51.038;7.216;2023-08-12T15:09:28;1.57;;;0.90;;
1128;SDS011;553;51.038;7.216;2023-08-12T15:11:55;2.60;;;1.00;;
1128;SDS011;553;51.038;7.216;2023-08-12T15:14:22;0.90;;;0.60;;
1128;SDS011;553;51.038;7.216;2023-08-12T15:16:49;1.10;;;0.63;;
1128;SDS011;553;51.038;7.216;2023-08-12T15:19:15;1.50;;;0.70;;
1128;SDS011;553;51.038;7.216;2023-08-12T15:21:42;1.10;;;1.00;;
1128;SDS011;553;51.038;7.216;2023-08-12T15:24:09;1.73;;;0.90;;
1128;SDS011;553;51.038;7.216;2023-08-12T15:26:36;1.20;;;1.00;;
1128;SDS011;553;51.038;7.216;2023-08-12T15:29:03;1.33;;;0.90;;
1128;SDS011;553;51.038;7.216;2023-08-12T15:31:30;1.37;;;0.80;;
1128;SDS011;553;51.038;7.216;2023-08-12T15:33:57;1.47;;;1.07;;
1128;SDS011;553;51.038;7.216;2023-08-12T15:36:23;1.57;;;0.80;;